sensor_id;sensor_type;location;lat;lon;timestamp;pressure;altitude;pressure_sealevel;temperature;humidity
67738;BME280;54534;43.612;1.572;2022-11-12T00:02:09;100187.81;;;18.63;52.90
67738;BME280;54534;43.612;1.572;2022-11-12T00:04:34;100189.50;;;18.64;52.82
67738;BME280;54534;43.612;1.572;2022-11-12T00:06:59;100192.16;;;18.64;52.84
67738;BME280;54534;43.612;1.572;2022-11-12T00:09:25;100196.63;;;18.63;53.16
67738;BME280;54534;43.612;1.572;2022-11-12T00:11:50;100191.31;;;18.63;53.21
67738;BME280;54534;43.612;1.572;2022-11-12T00:14:16;100200.16;;;18.64;52.79
67738;BME280;54534;43.612;1.572;2022-11-12T00:16:41;100201.97;;;18.63;52.96
67738;BME280;54534;43.612;1.572;2022-11-12T00:19:06;100195.69;;;18.64;52.98
67738;BME280;54534;43.612;1.572;2022-11-12T00:21:32;100194.84;;;18.64;52.90
67738;BME280;54534;43.612;1.572;2022-11-12T00:23:57;100201.13;;;18.63;53.00
67738;BME280;54534;43.612;1.572;2022-11-12T00:26:22;100197.50;;;18.64;53.36
67738;BME280;54534;43.612;1.572;2022-11-12T00:28:48;100193.91;;;18.65;52.97
67738;BME280;54534;43.612;1.572;2022-11-12T00:31:13;100204.63;;;18.63;53.10
67738;BME280;54534;43.612;1.572;2022-11-12T00:33:40;100193.03;;;18.64;52.82
67738;BME280;54534;43.612;1.572;2022-11-12T00:36:06;100190.38;;;18.64;53.09
67738;BME280;54534;43.612;1.572;2022-11-12T00:38:31;100190.38;;;18.64;53.39
67738;BME280;54534;43.612;1.572;2022-11-12T00:40:59;100197.50;;;18.64;53.33
67738;BME280;54534;43.612;1.572;2022-11-12T00:43:25;100197.50;;;18.64;53.21
67738;BME280;54534;43.612;1.572;2022-11-12T00:45:51;100210.81;;;18.64;53.12
67738;BME280;54534;43.612;1.572;2022-11-12T00:48:16;100208.16;;;18.64;53.19
67738;BME280;54534;43.612;1.572;2022-11-12T00:50:41;100208.16;;;18.64;53.03
67738;BME280;54534;43.612;1.572;2022-11-12T00:53:07;100208.16;;;18.64;52.90
67738;BME280;54534;43.612;1.572;2022-11-12T00:55:32;100213.47;;;18.64;53.08
67738;BME280;54534;43.612;1.572;2022-11-12T00:57:58;100205.50;;;18.64;53.28
67738;BME280;54534;43.612;1.572;2022-11-12T01:00:24;100210.81;;;18.64;52.88
67738;BME280;54534;43.612;1.572;2022-11-12T01:02:49;100203.69;;;18.64;53.24
67738;BME280;54534;43.612;1.572;2022-11-12T01:05:15;100205.50;;;18.64;53.19
67738;BME280;54534;43.612;1.572;2022-11-12T01:07:41;100208.16;;;18.64;53.21
67738;BME280;54534;43.612;1.572;2022-11-12T01:10:08;100204.53;;;18.65;52.94
67738;BME280;54534;43.612;1.572;2022-11-12T01:12:34;100205.50;;;18.64;53.39
67738;BME280;54534;43.612;1.572;2022-11-12T01:15:00;100206.34;;;18.64;53.24
67738;BME280;54534;43.612;1.572;2022-11-12T01:17:26;100212.53;;;18.65;53.09
67738;BME280;54534;43.612;1.572;2022-11-12T01:19:51;100203.69;;;18.64;53.13
67738;BME280;54534;43.612;1.572;2022-11-12T01:22:16;100205.41;;;18.65;53.10
67738;BME280;54534;43.612;1.572;2022-11-12T01:24:42;100207.22;;;18.65;53.03
67738;BME280;54534;43.612;1.572;2022-11-12T01:27:07;100203.56;;;18.66;53.34
67738;BME280;54534;43.612;1.572;2022-11-12T01:29:32;100212.53;;;18.65;52.95
67738;BME280;54534;43.612;1.572;2022-11-12T01:31:58;100215.19;;;18.65;52.98
67738;BME280;54534;43.612;1.572;2022-11-12T01:34:24;100209.88;;;18.65;53.26
67738;BME280;54534;43.612;1.572;2022-11-12T01:36:49;100210.75;;;18.65;53.18
67738;BME280;54534;43.612;1.572;2022-11-12T01:39:15;100220.53;;;18.65;53.19
67738;BME280;54534;43.612;1.572;2022-11-12T01:41:41;100217.00;;;18.64;53.03
67738;BME280;54534;43.612;1.572;2022-11-12T01:44:23;100226.72;;;18.65;53.12
67738;BME280;54534;43.612;1.572;2022-11-12T01:47:14;100225.84;;;18.65;53.17
67738;BME280;54534;43.612;1.572;2022-11-12T01:52:21;100225.00;;;18.64;53.04
67738;BME280;54534;43.612;1.572;2022-11-12T01:54:49;100225.00;;;18.64;53.20
67738;BME280;54534;43.612;1.572;2022-11-12T01:57:19;100215.19;;;18.65;53.06
67738;BME280;54534;43.612;1.572;2022-11-12T01:59:48;100220.53;;;18.65;53.38
67738;BME280;54534;43.612;1.572;2022-11-12T02:02:15;100220.53;;;18.65;53.39
67738;BME280;54534;43.612;1.572;2022-11-12T02:04:41;100221.38;;;18.65;53.30
67738;BME280;54534;43.612;1.572;2022-11-12T02:07:08;100214.34;;;18.64;53.08
67738;BME280;54534;43.612;1.572;2022-11-12T02:09:35;100216.06;;;18.65;53.30
67738;BME280;54534;43.612;1.572;2022-11-12T02:12:00;100214.44;;;18.63;53.19
67738;BME280;54534;43.612;1.572;2022-11-12T02:14:26;100211.56;;;18.66;53.27
67738;BME280;54534;43.612;1.572;2022-11-12T02:16:52;100201.88;;;18.65;53.05
67738;BME280;54534;43.612;1.572;2022-11-12T02:19:18;100204.53;;;18.65;52.97
67738;BME280;54534;43.612;1.572;2022-11-12T02:21:44;100214.22;;;18.66;53.27
67738;BME280;54534;43.612;1.572;2022-11-12T02:26:41;100215.19;;;18.65;52.93
67738;BME280;54534;43.612;1.572;2022-11-12T02:29:09;100224.88;;;18.66;53.10
67738;BME280;54534;43.612;1.572;2022-11-12T02:31:35;100221.38;;;18.65;53.31
67738;BME280;54534;43.612;1.572;2022-11-12T02:34:01;100220.53;;;18.65;53.01
67738;BME280;54534;43.612;1.572;2022-11-12T02:36:27;100209.88;;;18.65;53.03
67738;BME280;54534;43.612;1.572;2022-11-12T02:38:53;100210.75;;;18.65;52.80
67738;BME280;54534;43.612;1.572;2022-11-12T02:41:18;100205.41;;;18.65;53.24
67738;BME280;54534;43.612;1.572;2022-11-12T02:43:44;100203.56;;;18.66;53.01
67738;BME280;54534;43.612;1.572;2022-11-12T02:46:10;100202.75;;;18.65;53.18
67738;BME280;54534;43.612;1.572;2022-11-12T02:48:35;100192.91;;;18.66;52.94
67738;BME280;54534;43.612;1.572;2022-11-12T02:51:01;100197.41;;;18.65;52.95
67738;BME280;54534;43.612;1.572;2022-11-12T02:53:26;100194.75;;;18.65;52.86
67738;BME280;54534;43.612;1.572;2022-11-12T02:55:51;100192.91;;;18.66;53.00
67738;BME280;54534;43.612;1.572;2022-11-12T02:58:17;100194.75;;;18.65;52.96
67738;BME280;54534;43.612;1.572;2022-11-12T03:00:42;100197.41;;;18.65;53.27
67738;BME280;54534;43.612;1.572;2022-11-12T03:03:08;100193.91;;;18.65;52.94
67738;BME280;54534;43.612;1.572;2022-11-12T03:05:34;100187.69;;;18.64;53.20
67738;BME280;54534;43.612;1.572;2022-11-12T03:08:05;100186.66;;;18.67;52.88
67738;BME280;54534;43.612;1.572;2022-11-12T03:10:32;100177.91;;;18.65;53.18
67738;BME280;54534;43.612;1.572;2022-11-12T03:12:59;100183.25;;;18.65;52.98
67738;BME280;54534;43.612;1.572;2022-11-12T03:15:26;100172.59;;;18.65;53.06
67738;BME280;54534;43.612;1.572;2022-11-12T03:17:52;100177.91;;;18.65;53.15
67738;BME280;54534;43.612;1.572;2022-11-12T03:20:17;100177.06;;;18.64;53.42
67738;BME280;54534;43.612;1.572;2022-11-12T03:22:54;100166.28;;;18.66;52.66
67738;BME280;54534;43.612;1.572;2022-11-12T03:25:20;100170.78;;;18.65;53.16
67738;BME280;54534;43.612;1.572;2022-11-12T03:27:45;100169.81;;;18.66;52.96
67738;BME280;54534;43.612;1.572;2022-11-12T03:30:11;100169.91;;;18.65;53.33
67738;BME280;54534;43.612;1.572;2022-11-12T03:32:36;100178.78;;;18.65;53.29
67738;BME280;54534;43.612;1.572;2022-11-12T03:35:02;100161.06;;;18.64;53.38
67738;BME280;54534;43.612;1.572;2022-11-12T03:37:27;100161.94;;;18.65;52.94
67738;BME280;54534;43.612;1.572;2022-11-12T03:39:52;100166.41;;;18.64;53.34
67738;BME280;54534;43.612;1.572;2022-11-12T03:42:18;100169.81;;;18.66;53.17
67738;BME280;54534;43.612;1.572;2022-11-12T03:44:43;100167.25;;;18.65;53.23
67738;BME280;54534;43.612;1.572;2022-11-12T03:47:08;100164.59;;;18.65;53.01
67738;BME280;54534;43.612;1.572;2022-11-12T03:49:34;100167.25;;;18.65;53.02
67738;BME280;54534;43.612;1.572;2022-11-12T03:51:59;100167.25;;;18.65;53.31
67738;BME280;54534;43.612;1.572;2022-11-12T03:54:24;100162.78;;;18.65;52.97
67738;BME280;54534;43.612;1.572;2022-11-12T03:56:50;100167.25;;;18.65;52.80
67738;BME280;54534;43.612;1.572;2022-11-12T03:59:15;100177.91;;;18.65;53.05
67738;BME280;54534;43.612;1.572;2022-11-12T04:01:40;100168.94;;;18.66;53.07
67738;BME280;54534;43.612;1.572;2022-11-12T04:04:06;100181.44;;;18.65;53.41
67738;BME280;54534;43.612;1.572;2022-11-12T04:06:31;100177.91;;;18.65;53.10
67738;BME280;54534;43.612;1.572;2022-11-12T04:09:15;100166.41;;;18.64;53.11
67738;BME280;54534;43.612;1.572;2022-11-12T04:11:41;100160.22;;;18.64;53.16
67738;BME280;54534;43.612;1.572;2022-11-12T04:14:06;100161.94;;;18.65;53.23
67738;BME280;54534;43.612;1.572;2022-11-12T04:16:31;100171.72;;;18.64;53.01
67738;BME280;54534;43.612;1.572;2022-11-12T04:19:15;100172.59;;;18.65;53.16
67738;BME280;54534;43.612;1.572;2022-11-12T04:22:10;100169.91;;;18.65;53.04
67738;BME280;54534;43.612;1.572;2022-11-12T04:24:38;100178.78;;;18.65;53.25
67738;BME280;54534;43.612;1.572;2022-11-12T04:27:30;100184.19;;;18.64;53.28
67738;BME280;54534;43.612;1.572;2022-11-12T04:29:56;100175.31;;;18.63;53.13
67738;BME280;54534;43.612;1.572;2022-11-12T04:32:53;100170.84;;;18.64;53.29
67738;BME280;54534;43.612;1.572;2022-11-12T04:35:20;100181.50;;;18.64;53.13
67738;BME280;54534;43.612;1.572;2022-11-12T04:37:47;100180.66;;;18.63;53.37
67738;BME280;54534;43.612;1.572;2022-11-12T04:40:15;100171.72;;;18.64;53.28
67738;BME280;54534;43.612;1.572;2022-11-12T04:43:00;100170.00;;;18.63;53.00
67738;BME280;54534;43.612;1.572;2022-11-12T04:45:46;100160.22;;;18.64;53.28
67738;BME280;54534;43.612;1.572;2022-11-12T04:48:12;100160.22;;;18.64;53.50
67738;BME280;54534;43.612;1.572;2022-11-12T04:50:38;100151.34;;;18.63;53.34
67738;BME280;54534;43.612;1.572;2022-11-12T04:53:04;100157.53;;;18.64;53.01
67738;BME280;54534;43.612;1.572;2022-11-12T04:55:31;100153.06;;;18.64;53.11
67738;BME280;54534;43.612;1.572;2022-11-12T04:57:56;100154.88;;;18.64;53.27
67738;BME280;54534;43.612;1.572;2022-11-12T05:00:21;100157.53;;;18.64;53.03
67738;BME280;54534;43.612;1.572;2022-11-12T05:02:48;100161.06;;;18.64;53.31
67738;BME280;54534;43.612;1.572;2022-11-12T05:05:13;100153.94;;;18.65;53.24
67738;BME280;54534;43.612;1.572;2022-11-12T05:07:39;100163.72;;;18.64;53.19
67738;BME280;54534;43.612;1.572;2022-11-12T05:10:04;100161.94;;;18.65;53.19
67738;BME280;54534;43.612;1.572;2022-11-12T05:12:30;100164.59;;;18.65;53.05
67738;BME280;54534;43.612;1.572;2022-11-12T05:14:55;100164.59;;;18.65;53.18
67738;BME280;54534;43.612;1.572;2022-11-12T05:17:21;100168.94;;;18.66;52.99
67738;BME280;54534;43.612;1.572;2022-11-12T05:19:46;100159.25;;;18.65;53.33
67738;BME280;54534;43.612;1.572;2022-11-12T05:22:12;100153.06;;;18.64;53.19
67738;BME280;54534;43.612;1.572;2022-11-12T05:24:40;100142.41;;;18.64;53.32
67738;BME280;54534;43.612;1.572;2022-11-12T05:27:17;100138.81;;;18.65;52.73
67738;BME280;54534;43.612;1.572;2022-11-12T05:29:43;100138.81;;;18.65;53.03
67738;BME280;54534;43.612;1.572;2022-11-12T05:32:14;100132.63;;;18.65;52.86
67738;BME280;54534;43.612;1.572;2022-11-12T05:34:39;100132.63;;;18.65;53.23
67738;BME280;54534;43.612;1.572;2022-11-12T05:37:06;100124.72;;;18.63;53.26
67738;BME280;54534;43.612;1.572;2022-11-12T05:39:32;100135.28;;;18.65;53.21
67738;BME280;54534;43.612;1.572;2022-11-12T05:41:58;100144.22;;;18.64;52.83
67738;BME280;54534;43.612;1.572;2022-11-12T05:44:23;100137.97;;;18.65;52.95
67738;BME280;54534;43.612;1.572;2022-11-12T05:46:49;100141.56;;;18.64;52.96
67738;BME280;54534;43.612;1.572;2022-11-12T05:49:15;100143.28;;;18.65;52.94
67738;BME280;54534;43.612;1.572;2022-11-12T05:51:41;100139.75;;;18.64;53.17
67738;BME280;54534;43.612;1.572;2022-11-12T05:54:07;100145.94;;;18.65;52.82
67738;BME280;54534;43.612;1.572;2022-11-12T05:56:33;100139.75;;;18.64;53.13
67738;BME280;54534;43.612;1.572;2022-11-12T05:59:00;100138.81;;;18.65;52.88
67738;BME280;54534;43.612;1.572;2022-11-12T06:01:25;100136.22;;;18.64;53.09
67738;BME280;54534;43.612;1.572;2022-11-12T06:03:51;100131.75;;;18.64;52.84
67738;BME280;54534;43.612;1.572;2022-11-12T06:06:16;100140.63;;;18.65;53.32
67738;BME280;54534;43.612;1.572;2022-11-12T06:08:41;100154.81;;;18.65;53.04
67738;BME280;54534;43.612;1.572;2022-11-12T06:11:07;100147.88;;;18.63;52.99
67738;BME280;54534;43.612;1.572;2022-11-12T06:13:32;100151.28;;;18.65;53.17
67738;BME280;54534;43.612;1.572;2022-11-12T06:15:58;100149.56;;;18.64;53.17
67738;BME280;54534;43.612;1.572;2022-11-12T06:18:24;100146.88;;;18.64;53.17
67738;BME280;54534;43.612;1.572;2022-11-12T06:20:50;100143.28;;;18.65;52.93
67738;BME280;54534;43.612;1.572;2022-11-12T06:23:34;100148.59;;;18.65;52.88
67738;BME280;54534;43.612;1.572;2022-11-12T06:26:00;100136.22;;;18.64;52.82
67738;BME280;54534;43.612;1.572;2022-11-12T06:28:25;100137.97;;;18.65;52.90
67738;BME280;54534;43.612;1.572;2022-11-12T06:30:51;100128.25;;;18.64;52.90
67738;BME280;54534;43.612;1.572;2022-11-12T06:33:16;100116.72;;;18.63;52.94
67738;BME280;54534;43.612;1.572;2022-11-12T06:35:42;100128.25;;;18.64;53.08
67738;BME280;54534;43.612;1.572;2022-11-12T06:38:07;100113.25;;;18.63;52.60
67738;BME280;54534;43.612;1.572;2022-11-12T06:40:33;100118.44;;;18.64;53.01
67738;BME280;54534;43.612;1.572;2022-11-12T06:42:59;100113.13;;;18.64;52.82
67738;BME280;54534;43.612;1.572;2022-11-12T06:45:24;100113.13;;;18.64;52.92
67738;BME280;54534;43.612;1.572;2022-11-12T06:47:50;100122.91;;;18.64;52.94
67738;BME280;54534;43.612;1.572;2022-11-12T06:50:15;100126.44;;;18.64;52.95
67738;BME280;54534;43.612;1.572;2022-11-12T06:52:40;100120.25;;;18.64;53.17
67738;BME280;54534;43.612;1.572;2022-11-12T06:55:06;100119.38;;;18.63;52.53
67738;BME280;54534;43.612;1.572;2022-11-12T06:57:35;100122.91;;;18.64;53.08
67738;BME280;54534;43.612;1.572;2022-11-12T07:00:00;100129.22;;;18.63;53.07
67738;BME280;54534;43.612;1.572;2022-11-12T07:02:26;100128.25;;;18.64;53.10
67738;BME280;54534;43.612;1.572;2022-11-12T07:04:51;100138.91;;;18.64;52.87
67738;BME280;54534;43.612;1.572;2022-11-12T07:07:16;100136.22;;;18.64;53.14
67738;BME280;54534;43.612;1.572;2022-11-12T07:09:42;100138.03;;;18.63;53.04
67738;BME280;54534;43.612;1.572;2022-11-12T07:12:07;100140.63;;;18.65;52.64
67738;BME280;54534;43.612;1.572;2022-11-12T07:14:33;100143.38;;;18.63;52.87
67738;BME280;54534;43.612;1.572;2022-11-12T07:16:58;100148.69;;;18.63;53.10
67738;BME280;54534;43.612;1.572;2022-11-12T07:19:24;100131.75;;;18.64;52.80
67738;BME280;54534;43.612;1.572;2022-11-12T07:21:49;100137.09;;;18.64;52.76
67738;BME280;54534;43.612;1.572;2022-11-12T07:24:15;100138.91;;;18.64;53.05
67738;BME280;54534;43.612;1.572;2022-11-12T07:26:40;100135.38;;;18.63;52.90
67738;BME280;54534;43.612;1.572;2022-11-12T07:29:06;100133.56;;;18.64;53.06
67738;BME280;54534;43.612;1.572;2022-11-12T07:31:32;100129.22;;;18.63;52.81
67738;BME280;54534;43.612;1.572;2022-11-12T07:33:57;100125.56;;;18.64;53.05
67738;BME280;54534;43.612;1.572;2022-11-12T07:36:22;100134.44;;;18.64;53.01
67738;BME280;54534;43.612;1.572;2022-11-12T07:38:50;100137.09;;;18.64;53.19
67738;BME280;54534;43.612;1.572;2022-11-12T07:41:18;100133.56;;;18.64;53.01
67738;BME280;54534;43.612;1.572;2022-11-12T07:43:45;100133.56;;;18.64;52.90
67738;BME280;54534;43.612;1.572;2022-11-12T07:46:19;100128.25;;;18.64;53.04
67738;BME280;54534;43.612;1.572;2022-11-12T07:48:44;100129.22;;;18.63;52.83
67738;BME280;54534;43.612;1.572;2022-11-12T07:51:25;100133.56;;;18.64;53.02
67738;BME280;54534;43.612;1.572;2022-11-12T07:53:53;100129.22;;;18.63;52.81
67738;BME280;54534;43.612;1.572;2022-11-12T07:56:20;100134.53;;;18.63;53.05
67738;BME280;54534;43.612;1.572;2022-11-12T07:58:46;100133.56;;;18.64;52.72
67738;BME280;54534;43.612;1.572;2022-11-12T08:03:47;100151.34;;;18.63;52.97
67738;BME280;54534;43.612;1.572;2022-11-12T08:06:12;100153.19;;;18.63;52.87
67738;BME280;54534;43.612;1.572;2022-11-12T08:08:38;100147.88;;;18.63;52.80
67738;BME280;54534;43.612;1.572;2022-11-12T08:11:03;100157.53;;;18.64;53.03
67738;BME280;54534;43.612;1.572;2022-11-12T08:13:28;100159.34;;;18.63;52.95
67738;BME280;54534;43.612;1.572;2022-11-12T08:15:56;100154.03;;;18.63;52.97
67738;BME280;54534;43.612;1.572;2022-11-12T08:18:23;100149.56;;;18.64;52.80
67738;BME280;54534;43.612;1.572;2022-11-12T08:20:48;100149.56;;;18.64;52.78
67738;BME280;54534;43.612;1.572;2022-11-12T08:23:14;100147.88;;;18.63;52.58
67738;BME280;54534;43.612;1.572;2022-11-12T08:25:39;100160.22;;;18.64;53.10
67738;BME280;54534;43.612;1.572;2022-11-12T08:28:04;100150.53;;;18.63;53.17
67738;BME280;54534;43.612;1.572;2022-11-12T08:30:30;100153.19;;;18.63;53.13
67738;BME280;54534;43.612;1.572;2022-11-12T08:32:57;100151.47;;;18.62;52.79
67738;BME280;54534;43.612;1.572;2022-11-12T08:35:23;100142.53;;;18.63;52.89
67738;BME280;54534;43.612;1.572;2022-11-12T08:37:49;100149.56;;;18.64;52.96
67738;BME280;54534;43.612;1.572;2022-11-12T08:40:14;100145.19;;;18.63;52.64
67738;BME280;54534;43.612;1.572;2022-11-12T08:42:40;100153.19;;;18.63;52.97
67738;BME280;54534;43.612;1.572;2022-11-12T08:45:05;100150.53;;;18.63;52.69
67738;BME280;54534;43.612;1.572;2022-11-12T08:47:31;100145.19;;;18.63;52.97
67738;BME280;54534;43.612;1.572;2022-11-12T08:49:56;100153.19;;;18.63;52.71
67738;BME280;54534;43.612;1.572;2022-11-12T08:52:22;100141.69;;;18.62;52.70
67738;BME280;54534;43.612;1.572;2022-11-12T08:54:47;100147.00;;;18.62;53.12
67738;BME280;54534;43.612;1.572;2022-11-12T08:57:12;100156.69;;;18.63;52.67
67738;BME280;54534;43.612;1.572;2022-11-12T08:59:38;100147.88;;;18.63;52.68
67738;BME280;54534;43.612;1.572;2022-11-12T09:02:03;100139.88;;;18.63;53.19
67738;BME280;54534;43.612;1.572;2022-11-12T09:04:30;100131.88;;;18.63;52.80
67738;BME280;54534;43.612;1.572;2022-11-12T09:06:55;100148.69;;;18.63;52.98
67738;BME280;54534;43.612;1.572;2022-11-12T09:09:21;100143.38;;;18.63;52.71
67738;BME280;54534;43.612;1.572;2022-11-12T09:11:46;100150.53;;;18.63;52.90
67738;BME280;54534;43.612;1.572;2022-11-12T09:14:11;100145.19;;;18.63;52.66
67738;BME280;54534;43.612;1.572;2022-11-12T09:16:37;100147.88;;;18.63;52.73
67738;BME280;54534;43.612;1.572;2022-11-12T09:19:02;100150.53;;;18.63;52.55
67738;BME280;54534;43.612;1.572;2022-11-12T09:21:27;100151.47;;;18.62;52.69
67738;BME280;54534;43.612;1.572;2022-11-12T09:23:53;100150.53;;;18.63;52.73
67738;BME280;54534;43.612;1.572;2022-11-12T09:26:19;100152.22;;;18.64;52.78
67738;BME280;54534;43.612;1.572;2022-11-12T09:28:45;100155.00;;;18.62;52.81
67738;BME280;54534;43.612;1.572;2022-11-12T09:31:10;100151.47;;;18.62;52.83
67738;BME280;54534;43.612;1.572;2022-11-12T09:33:36;100138.03;;;18.63;53.05
67738;BME280;54534;43.612;1.572;2022-11-12T09:36:02;100156.69;;;18.63;52.81
67738;BME280;54534;43.612;1.572;2022-11-12T09:38:28;100153.19;;;18.63;52.97
67738;BME280;54534;43.612;1.572;2022-11-12T09:41:18;100142.53;;;18.63;53.03
67738;BME280;54534;43.612;1.572;2022-11-12T09:43:49;100147.88;;;18.63;52.88
67738;BME280;54534;43.612;1.572;2022-11-12T09:46:32;100153.19;;;18.63;52.94
67738;BME280;54534;43.612;1.572;2022-11-12T09:52:16;100147.00;;;18.62;52.69
67738;BME280;54534;43.612;1.572;2022-11-12T09:54:44;100146.16;;;18.62;52.79
67738;BME280;54534;43.612;1.572;2022-11-12T09:57:12;100152.22;;;18.64;52.97
67738;BME280;54534;43.612;1.572;2022-11-12T09:59:40;100150.53;;;18.63;52.81
67738;BME280;54534;43.612;1.572;2022-11-12T10:10:28;100147.88;;;18.63;52.69
67738;BME280;54534;43.612;1.572;2022-11-12T10:16:22;100152.31;;;18.62;53.04
67738;BME280;54534;43.612;1.572;2022-11-12T10:24:36;100150.59;;;18.61;53.11
67738;BME280;54534;43.612;1.572;2022-11-12T10:27:21;100143.47;;;18.62;52.75
67738;BME280;54534;43.612;1.572;2022-11-12T10:32:24;100138.16;;;18.62;52.88
67738;BME280;54534;43.612;1.572;2022-11-12T10:34:50;100133.69;;;18.62;52.92
67738;BME280;54534;43.612;1.572;2022-11-12T10:39:55;100124.84;;;18.62;53.05
67738;BME280;54534;43.612;1.572;2022-11-12T10:42:22;100124.84;;;18.62;52.69
67738;BME280;54534;43.612;1.572;2022-11-12T10:44:48;100124.84;;;18.62;52.82
67738;BME280;54534;43.612;1.572;2022-11-12T10:47:31;100116.72;;;18.63;52.75
67738;BME280;54534;43.612;1.572;2022-11-12T10:52:30;100117.69;;;18.62;53.22
67738;BME280;54534;43.612;1.572;2022-11-12T10:55:17;100117.59;;;18.64;52.81
67738;BME280;54534;43.612;1.572;2022-11-12T10:57:43;100105.25;;;18.63;52.96
67738;BME280;54534;43.612;1.572;2022-11-12T11:02:46;100101.59;;;18.64;53.38
67738;BME280;54534;43.612;1.572;2022-11-12T11:07:55;100089.25;;;18.63;53.00
67738;BME280;54534;43.612;1.572;2022-11-12T11:13:25;100093.63;;;18.64;52.84
67738;BME280;54534;43.612;1.572;2022-11-12T11:16:00;100096.28;;;18.64;53.20
67738;BME280;54534;43.612;1.572;2022-11-12T11:18:28;100103.31;;;18.65;53.10
67738;BME280;54534;43.612;1.572;2022-11-12T11:23:45;100080.28;;;18.64;53.12
67738;BME280;54534;43.612;1.572;2022-11-12T11:26:48;100077.63;;;18.64;52.90
67738;BME280;54534;43.612;1.572;2022-11-12T11:40:03;100065.19;;;18.64;53.24
67738;BME280;54534;43.612;1.572;2022-11-12T11:53:23;100058.91;;;18.65;53.10
67738;BME280;54534;43.612;1.572;2022-11-12T11:55:56;100044.72;;;18.65;53.18
67738;BME280;54534;43.612;1.572;2022-11-12T12:09:37;100044.72;;;18.65;53.27
67738;BME280;54534;43.612;1.572;2022-11-12T12:20:37;100032.16;;;18.67;53.36
67738;BME280;54534;43.612;1.572;2022-11-12T12:25:45;100031.28;;;18.66;53.52
67738;BME280;54534;43.612;1.572;2022-11-12T12:31:01;100027.69;;;18.67;53.37
67738;BME280;54534;43.612;1.572;2022-11-12T12:33:36;100018.84;;;18.67;53.36
67738;BME280;54534;43.612;1.572;2022-11-12T12:36:11;100016.06;;;18.68;53.07
67738;BME280;54534;43.612;1.572;2022-11-12T12:41:41;100005.41;;;18.68;53.24
67738;BME280;54534;43.612;1.572;2022-11-12T12:44:09;100007.22;;;18.68;53.53
67738;BME280;54534;43.612;1.572;2022-11-12T12:46:41;100008.91;;;18.69;53.49
67738;BME280;54534;43.612;1.572;2022-11-12T12:49:14;100004.44;;;18.70;53.15
67738;BME280;54534;43.612;1.572;2022-11-12T12:51:40;100003.59;;;18.69;53.24
67738;BME280;54534;43.612;1.572;2022-11-12T12:57:00;100008.91;;;18.69;53.20
67738;BME280;54534;43.612;1.572;2022-11-12T12:59:26;99997.31;;;18.70;53.31
67738;BME280;54534;43.612;1.572;2022-11-12T13:01:57;99992.00;;;18.70;53.35
67738;BME280;54534;43.612;1.572;2022-11-12T13:07:13;99985.94;;;18.68;53.52
67738;BME280;54534;43.612;1.572;2022-11-12T13:09:38;99979.63;;;18.69;53.35
67738;BME280;54534;43.612;1.572;2022-11-12T13:12:04;99982.19;;;18.71;53.71
67738;BME280;54534;43.612;1.572;2022-11-12T13:48:39;99924.34;;;18.73;53.58
67738;BME280;54534;43.612;1.572;2022-11-12T13:53:43;99930.53;;;18.73;53.67
67738;BME280;54534;43.612;1.572;2022-11-12T13:56:14;99921.56;;;18.74;53.51
67738;BME280;54534;43.612;1.572;2022-11-12T13:58:48;99926.88;;;18.74;53.51
67738;BME280;54534;43.612;1.572;2022-11-12T14:01:18;99917.94;;;18.75;53.57
67738;BME280;54534;43.612;1.572;2022-11-12T14:03:47;99920.59;;;18.75;53.67
67738;BME280;54534;43.612;1.572;2022-11-12T14:09:10;99917.94;;;18.75;53.86
67738;BME280;54534;43.612;1.572;2022-11-12T14:17:49;99918.78;;;18.76;53.56
67738;BME280;54534;43.612;1.572;2022-11-12T14:22:47;99917.94;;;18.75;53.69
67738;BME280;54534;43.612;1.572;2022-11-12T14:25:15;99914.31;;;18.76;54.00
67738;BME280;54534;43.612;1.572;2022-11-12T14:27:42;99917.00;;;18.76;53.64
67738;BME280;54534;43.612;1.572;2022-11-12T14:32:37;99910.69;;;18.77;53.82
67738;BME280;54534;43.612;1.572;2022-11-12T14:37:57;99913.34;;;18.77;54.05
67738;BME280;54534;43.612;1.572;2022-11-12T14:40:25;99916.88;;;18.78;54.07
67738;BME280;54534;43.612;1.572;2022-11-12T14:42:52;99917.72;;;18.78;53.74
67738;BME280;54534;43.612;1.572;2022-11-12T14:45:20;99910.59;;;18.79;53.88
67738;BME280;54534;43.612;1.572;2022-11-12T14:47:47;99907.06;;;18.78;53.77
67738;BME280;54534;43.612;1.572;2022-11-12T14:50:21;99903.44;;;18.79;53.94
67738;BME280;54534;43.612;1.572;2022-11-12T14:52:51;99892.78;;;18.79;53.81
67738;BME280;54534;43.612;1.572;2022-11-12T14:55:22;99898.97;;;18.80;54.11
67738;BME280;54534;43.612;1.572;2022-11-12T14:57:49;99892.78;;;18.79;53.58
67738;BME280;54534;43.612;1.572;2022-11-12T15:00:19;99895.34;;;18.81;54.20
67738;BME280;54534;43.612;1.572;2022-11-12T15:02:45;99890.88;;;18.82;53.84
67738;BME280;54534;43.612;1.572;2022-11-12T15:05:14;99896.22;;;18.82;54.16
67738;BME280;54534;43.612;1.572;2022-11-12T15:08:00;99891.69;;;18.82;54.17
67738;BME280;54534;43.612;1.572;2022-11-12T15:10:36;99887.22;;;18.83;54.11
67738;BME280;54534;43.612;1.572;2022-11-12T15:13:10;99877.56;;;18.82;53.96
67738;BME280;54534;43.612;1.572;2022-11-12T15:15:38;99881.91;;;18.83;54.08
67738;BME280;54534;43.612;1.572;2022-11-12T15:18:06;99878.38;;;18.82;54.10
67738;BME280;54534;43.612;1.572;2022-11-12T15:20:38;99871.25;;;18.83;53.80
67738;BME280;54534;43.612;1.572;2022-11-12T15:23:04;99877.44;;;18.83;53.93
67738;BME280;54534;43.612;1.572;2022-11-12T15:25:30;99872.97;;;18.84;54.26
67738;BME280;54534;43.612;1.572;2022-11-12T15:28:20;99855.16;;;18.84;54.06
67738;BME280;54534;43.612;1.572;2022-11-12T15:31:05;99858.66;;;18.85;54.25